Time;durP1;ratioP1;P1;durP2;ratioP2;P2;SDS_P1;SDS_P2;PMS_P1;PMS_P2;Temp;Humidity;BMP_temperature;BMP_pressure;BME280_temperature;BME280_humidity;BME280_pressure;Samples;Min_cycle;Max_cycle;Signal;HPM_P1;HPM_P2
2022/07/26 00:01:04;;;;;;;7.97;1.38;;;16.00;99.90;;;;;;5010509;28;20198;-57
2022/07/26 00:03:31;;;;;;;6.97;1.30;;;16.00;99.90;;;;;;4999205;28;20175;-57
2022/07/26 00:05:57;;;;;;;4.55;1.05;;;16.00;99.90;;;;;;4992153;28;20171;-57
2022/07/26 00:08:23;;;;;;;7.00;1.40;;;16.00;99.90;;;;;;5011808;28;20183;-57
2022/07/26 00:10:49;;;;;;;6.75;1.50;;;16.00;99.90;;;;;;5011135;28;20634;-58
2022/07/26 00:13:17;;;;;;;8.90;1.33;;;16.00;99.90;;;;;;5011596;28;20203;-57
2022/07/26 00:15:44;;;;;;;4.97;1.15;;;16.10;99.90;;;;;;5011570;28;20182;-57
2022/07/26 00:18:10;;;;;;;4.90;1.35;;;16.10;99.90;;;;;;5011743;28;20179;-56
2022/07/26 00:20:36;;;;;;;6.32;1.45;;;16.10;99.90;;;;;;5010976;28;20672;-57
2022/07/26 00:23:02;;;;;;;7.15;1.10;;;16.20;99.90;;;;;;5011487;28;20197;-57
2022/07/26 00:25:28;;;;;;;4.60;1.10;;;16.20;99.90;;;;;;5004366;28;20210;-57
2022/07/26 00:27:54;;;;;;;6.82;1.50;;;16.20;99.90;;;;;;4991860;28;20250;-56
2022/07/26 00:30:20;;;;;;;6.20;1.00;;;16.30;99.90;;;;;;4991986;28;20174;-56
2022/07/26 00:32:46;;;;;;;5.72;1.27;;;16.20;99.90;;;;;;4995011;28;20179;-57
2022/07/26 00:35:12;;;;;;;3.35;0.90;;;16.20;99.90;;;;;;5000767;28;20178;-57
2022/07/26 00:37:38;;;;;;;5.43;1.45;;;16.20;99.90;;;;;;5011147;28;20206;-56
2022/07/26 00:40:05;;;;;;;10.00;1.55;;;16.30;99.90;;;;;;5011279;28;20205;-64
2022/07/26 00:42:31;;;;;;;3.47;0.98;;;16.20;99.90;;;;;;5010751;28;20245;-57
2022/07/26 00:44:58;;;;;;;5.85;1.27;;;16.20;99.90;;;;;;5011464;28;20582;-58
2022/07/26 00:47:23;;;;;;;8.50;1.38;;;16.20;99.90;;;;;;5011442;28;20178;-56
2022/07/26 00:49:49;;;;;;;3.00;1.00;;;16.20;99.90;;;;;;4992843;28;20530;-58
2022/07/26 00:52:16;;;;;;;10.48;1.20;;;16.20;99.90;;;;;;5011221;28;20178;-56
2022/07/26 00:54:44;;;;;;;7.70;1.00;;;16.20;99.90;;;;;;4996554;28;20207;-61
2022/07/26 00:57:11;;;;;;;7.72;1.40;;;16.10;99.90;;;;;;4991346;28;20257;-65
2022/07/26 00:59:37;;;;;;;5.85;1.10;;;17.70;99.90;;;;;;4991521;28;20183;-66
2022/07/26 01:02:05;;;;;;;7.25;1.25;;;16.20;99.90;;;;;;4992888;28;20171;-66
2022/07/26 01:04:31;;;;;;;6.28;1.10;;;16.20;99.90;;;;;;4991396;28;20194;-66
2022/07/26 01:06:57;;;;;;;4.40;1.08;;;16.20;99.90;;;;;;4999031;28;20190;-66
2022/07/26 01:09:23;;;;;;;6.18;1.35;;;16.10;99.90;;;;;;5011123;28;20170;-66
2022/07/26 01:11:50;;;;;;;9.38;1.35;;;16.10;99.90;;;;;;5010378;28;20661;-65
2022/07/26 01:14:20;;;;;;;6.88;1.40;;;16.10;99.90;;;;;;5010856;28;20217;-66
2022/07/26 01:16:46;;;;;;;6.60;0.98;;;16.10;99.90;;;;;;5011003;28;20290;-65
2022/07/26 01:19:12;;;;;;;9.13;1.40;;;16.20;99.90;;;;;;5011038;28;20175;-64
2022/07/26 01:21:38;;;;;;;11.75;1.90;;;16.20;99.90;;;;;;5010404;28;20174;-65
2022/07/26 01:24:05;;;;;;;8.13;1.30;;;16.10;99.90;;;;;;5011072;28;20167;-66
2022/07/26 01:26:31;;;;;;;5.85;1.35;;;16.10;99.90;;;;;;5010659;28;20735;-65
2022/07/26 01:28:57;;;;;;;9.32;1.20;;;16.10;99.90;;;;;;5010886;28;20669;-66
2022/07/26 01:31:23;;;;;;;11.25;1.60;;;16.10;99.90;;;;;;5010140;28;20174;-67
2022/07/26 01:33:49;;;;;;;8.52;1.40;;;16.10;99.90;;;;;;5010916;28;20218;-66
2022/07/26 01:36:15;;;;;;;6.32;1.13;;;16.10;99.90;;;;;;5012680;28;20205;-67
2022/07/26 01:38:41;;;;;;;6.15;1.55;;;16.00;99.90;;;;;;5011273;28;20634;-68
2022/07/26 01:41:08;;;;;;;5.88;1.48;;;16.00;99.90;;;;;;5003923;28;20601;-67
2022/07/26 01:43:34;;;;;;;5.75;1.55;;;16.00;99.90;;;;;;5014492;28;20645;-67
2022/07/26 01:46:01;;;;;;;8.23;1.30;;;15.90;99.90;;;;;;5003867;28;20209;-67
2022/07/26 01:48:27;;;;;;;6.78;1.25;;;16.00;99.90;;;;;;4994877;28;20195;-67
2022/07/26 01:50:53;;;;;;;16.17;1.65;;;16.00;99.90;;;;;;5001534;28;20649;-67
2022/07/26 01:53:18;;;;;;;7.65;1.60;;;15.90;99.90;;;;;;5003628;28;20211;-67
2022/07/26 01:55:44;;;;;;;7.72;1.88;;;15.90;99.90;;;;;;4994578;28;20184;-66
2022/07/26 01:58:10;;;;;;;4.70;1.23;;;15.90;99.90;;;;;;4994523;28;20199;-67
2022/07/26 02:00:36;;;;;;;6.28;1.65;;;15.90;99.90;;;;;;4994977;28;20186;-67
2022/07/26 02:03:02;;;;;;;6.90;1.42;;;15.90;99.90;;;;;;4994515;28;20625;-66
2022/07/26 02:05:28;;;;;;;6.78;1.30;;;15.90;99.90;;;;;;4994647;28;20599;-67
2022/07/26 02:07:54;;;;;;;7.88;1.40;;;15.90;99.90;;;;;;5009300;28;20653;-67
2022/07/26 02:10:20;;;;;;;9.32;1.45;;;16.00;99.90;;;;;;5013277;28;20265;-67
2022/07/26 02:12:46;;;;;;;7.28;1.33;;;16.00;99.90;;;;;;5013846;28;20223;-67
2022/07/26 02:15:13;;;;;;;9.30;1.73;;;16.00;99.90;;;;;;5013750;28;20750;-66
2022/07/26 02:17:39;;;;;;;5.47;1.30;;;15.90;99.90;;;;;;5013835;28;20179;-66
2022/07/26 02:20:06;;;;;;;4.20;1.08;;;15.90;99.90;;;;;;5013363;28;20261;-66
2022/07/26 02:22:32;;;;;;;8.32;1.40;;;15.80;99.90;;;;;;4994131;28;20183;-66
2022/07/26 02:24:58;;;;;;;5.88;1.40;;;15.80;99.90;;;;;;4993930;28;20220;-66
2022/07/26 02:27:24;;;;;;;5.70;1.35;;;15.80;99.90;;;;;;4993984;28;20183;-66
2022/07/26 02:29:49;;;;;;;8.70;1.25;;;15.70;99.90;;;;;;4995102;28;20542;-65
2022/07/26 02:32:15;;;;;;;7.57;1.73;;;15.70;99.90;;;;;;4996062;28;20685;-65
2022/07/26 02:34:41;;;;;;;7.72;1.38;;;15.70;99.90;;;;;;5013408;28;20210;-65
2022/07/26 02:37:07;;;;;;;9.65;1.67;;;15.70;99.90;;;;;;5013332;28;20186;-65
2022/07/26 02:39:33;;;;;;;7.55;1.20;;;15.70;99.90;;;;;;4993691;28;20175;-67
2022/07/26 02:42:00;;;;;;;9.02;1.55;;;15.70;99.90;;;;;;5011817;28;20166;-66
2022/07/26 02:44:27;;;;;;;11.52;1.60;;;15.70;99.90;;;;;;5013476;28;20209;-66
2022/07/26 02:46:53;;;;;;;11.95;1.52;;;15.70;99.90;;;;;;4994482;28;20182;-66
2022/07/26 02:49:19;;;;;;;4.95;1.20;;;15.70;99.90;;;;;;5011875;28;20206;-64
2022/07/26 02:51:46;;;;;;;7.40;1.45;;;15.60;99.90;;;;;;4996775;28;20227;-65
2022/07/26 02:54:12;;;;;;;10.32;1.45;;;15.60;99.90;;;;;;4993309;28;20226;-64
2022/07/26 02:56:38;;;;;;;6.80;1.50;;;15.50;99.90;;;;;;4993618;28;20191;-64
2022/07/26 02:59:06;;;;;;;5.28;1.23;;;15.50;99.90;;;;;;4993508;28;20175;-64
2022/07/26 03:01:34;;;;;;;8.48;1.67;;;15.50;99.90;;;;;;4999878;28;20545;-64
2022/07/26 03:04:00;;;;;;;6.40;1.80;;;15.40;99.90;;;;;;5012730;28;20179;-65
2022/07/26 03:06:26;;;;;;;3.75;1.38;;;15.40;99.90;;;;;;5012177;28;20246;-57
2022/07/26 03:08:53;;;;;;;7.90;1.20;;;15.40;99.90;;;;;;5012578;28;20261;-57
2022/07/26 03:11:19;;;;;;;10.80;1.30;;;15.30;99.90;;;;;;5000513;28;20181;-58
2022/07/26 03:13:44;;;;;;;16.48;2.20;;;15.30;99.90;;;;;;4993060;28;20203;-57
2022/07/26 03:16:10;;;;;;;7.30;1.63;;;15.30;99.90;;;;;;4993118;28;20168;-57
2022/07/26 03:18:36;;;;;;;9.40;1.67;;;15.30;99.90;;;;;;4993075;28;20535;-57
2022/07/26 03:21:02;;;;;;;4.18;1.33;;;15.20;99.90;;;;;;5002393;28;20170;-57
2022/07/26 03:23:32;;;;;;;10.40;1.60;;;15.20;99.90;;;;;;5012412;28;20181;-57
2022/07/26 03:25:58;;;;;;;6.30;1.20;;;15.20;99.90;;;;;;5012256;28;20317;-57
2022/07/26 03:28:24;;;;;;;7.15;1.35;;;15.20;99.90;;;;;;5012225;28;20178;-57
2022/07/26 03:30:50;;;;;;;6.07;1.33;;;15.20;99.90;;;;;;5000485;28;20178;-57
2022/07/26 03:33:15;;;;;;;7.20;1.30;;;15.20;99.90;;;;;;4994913;28;20729;-58
2022/07/26 03:35:41;;;;;;;3.88;1.20;;;15.20;99.90;;;;;;5012089;28;20171;-57
2022/07/26 03:38:07;;;;;;;5.85;1.58;;;15.20;99.90;;;;;;4992724;28;20167;-57
2022/07/26 03:40:33;;;;;;;9.63;1.27;;;15.20;99.90;;;;;;4997530;28;20257;-57
2022/07/26 03:42:59;;;;;;;7.35;1.52;;;15.20;99.90;;;;;;5012255;28;20174;-57
2022/07/26 03:45:25;;;;;;;9.18;2.17;;;15.20;99.90;;;;;;5012160;28;20241;-57
2022/07/26 03:47:52;;;;;;;7.78;1.33;;;15.10;99.90;;;;;;5012185;28;20181;-57
2022/07/26 03:50:18;;;;;;;6.28;1.58;;;15.10;99.90;;;;;;5011334;28;20179;-57
2022/07/26 03:52:43;;;;;;;9.30;1.73;;;15.10;99.90;;;;;;5012082;28;20181;-58
2022/07/26 03:57:53;;;;;;;4.45;1.15;;;13.60;99.90;;;;;;5012063;28;20533;-58
2022/07/26 04:00:19;;;;;;;7.35;1.80;;;15.10;99.90;;;;;;5009315;28;20167;-57
2022/07/26 04:02:45;;;;;;;6.20;1.27;;;15.20;99.90;;;;;;4992295;28;20168;-57
2022/07/26 04:05:11;;;;;;;5.07;1.17;;;15.20;99.90;;;;;;4992273;28;20182;-57
2022/07/26 04:07:41;;;;;;;8.90;1.83;;;15.20;99.90;;;;;;5004339;28;20183;-57
2022/07/26 04:10:08;;;;;;;10.98;1.40;;;15.20;99.90;;;;;;5011204;28;20209;-58
2022/07/26 04:12:34;;;;;;;9.02;1.50;;;15.30;99.90;;;;;;4994432;28;20232;-57
2022/07/26 04:15:00;;;;;;;7.20;1.65;;;15.30;99.90;;;;;;5011558;28;20214;-57
2022/07/26 04:17:25;;;;;;;7.80;1.60;;;15.30;99.90;;;;;;4659828;23;20687;-55
2022/07/26 04:19:51;;;;;;;5.03;1.33;;;15.30;99.90;;;;;;5011696;28;20185;-56
2022/07/26 04:22:17;;;;;;;9.75;1.33;;;15.40;99.90;;;;;;5004324;28;20262;-57
2022/07/26 04:24:43;;;;;;;5.80;0.93;;;15.40;99.90;;;;;;4991994;28;20175;-56
2022/07/26 04:27:08;;;;;;;7.47;1.30;;;15.40;99.90;;;;;;4992322;28;20254;-56
2022/07/26 04:29:34;;;;;;;7.07;1.50;;;15.40;99.90;;;;;;4995151;28;20167;-56
2022/07/26 04:32:00;;;;;;;6.60;1.25;;;15.40;99.90;;;;;;5011451;28;20230;-56
2022/07/26 04:34:26;;;;;;;16.13;2.00;;;15.50;99.90;;;;;;5011412;28;20297;-56
2022/07/26 04:36:52;;;;;;;4.60;1.30;;;15.40;99.90;;;;;;5011416;28;20706;-56
2022/07/26 04:39:23;;;;;;;8.73;1.40;;;15.50;99.90;;;;;;5011389;28;20655;-56
2022/07/26 04:41:49;;;;;;;7.72;1.60;;;15.50;99.90;;;;;;5010950;28;20182;-56
2022/07/26 04:44:15;;;;;;;7.40;1.45;;;15.50;99.90;;;;;;5011302;28;20179;-56
2022/07/26 04:46:41;;;;;;;7.90;1.23;;;15.50;99.90;;;;;;5011249;28;20162;-57
2022/07/26 04:49:07;;;;;;;14.75;1.73;;;15.50;99.90;;;;;;5011142;28;20167;-57
2022/07/26 04:51:32;;;;;;;7.30;1.30;;;15.50;99.90;;;;;;5011342;28;20659;-56
2022/07/26 04:53:58;;;;;;;8.23;1.90;;;15.60;99.90;;;;;;5011150;28;20222;-56
2022/07/26 04:56:24;;;;;;;7.93;1.10;;;15.60;99.90;;;;;;5010643;28;20174;-56
2022/07/26 04:58:50;;;;;;;6.10;1.13;;;15.70;99.90;;;;;;5011125;28;20174;-57
2022/07/26 05:01:16;;;;;;;5.25;1.20;;;15.90;99.90;;;;;;5011127;28;20177;-56
2022/07/26 05:03:41;;;;;;;11.95;1.85;;;15.60;99.90;;;;;;5011204;28;20241;-57
2022/07/26 05:06:08;;;;;;;5.88;1.45;;;15.60;99.90;;;;;;5010431;28;20178;-57
2022/07/26 05:08:33;;;;;;;8.60;1.85;;;15.60;99.90;;;;;;5018943;28;20660;-57
2022/07/26 05:10:59;;;;;;;7.88;1.33;;;15.60;99.90;;;;;;5032127;28;20265;-56
2022/07/26 05:13:25;;;;;;;5.72;1.30;;;15.60;99.90;;;;;;5018399;28;20758;-57
2022/07/26 05:15:51;;;;;;;7.55;1.50;;;15.60;99.90;;;;;;5014993;28;20196;-57
2022/07/26 05:18:17;;;;;;;9.73;1.35;;;15.60;99.90;;;;;;5014712;28;20214;-57
2022/07/26 05:20:42;;;;;;;7.93;1.40;;;15.50;99.90;;;;;;5014980;28;20221;-57
2022/07/26 05:23:08;;;;;;;7.50;1.63;;;15.60;99.90;;;;;;5014792;28;20237;-56
2022/07/26 05:25:35;;;;;;;4.97;1.30;;;15.60;99.90;;;;;;5014636;28;20178;-56
2022/07/26 05:28:01;;;;;;;7.45;1.80;;;15.60;99.90;;;;;;5014768;28;20285;-57
2022/07/26 05:30:27;;;;;;;11.60;1.30;;;15.70;99.90;;;;;;5014650;28;20545;-57
2022/07/26 05:32:53;;;;;;;5.07;1.45;;;15.60;99.90;;;;;;5014690;28;20305;-56
2022/07/26 05:35:19;;;;;;;6.32;1.38;;;15.60;99.90;;;;;;5014676;28;20182;-57
2022/07/26 05:37:45;;;;;;;5.93;1.10;;;15.60;99.90;;;;;;5014509;28;20170;-57
2022/07/26 05:40:11;;;;;;;6.32;1.30;;;15.60;99.90;;;;;;5014451;28;20178;-57
2022/07/26 05:42:37;;;;;;;6.05;1.50;;;15.60;99.90;;;;;;5014228;28;20174;-57
2022/07/26 05:45:05;;;;;;;6.70;1.33;;;15.70;99.90;;;;;;5014429;28;20171;-57
2022/07/26 05:47:31;;;;;;;6.90;1.35;;;15.70;99.90;;;;;;5014263;28;20173;-57
2022/07/26 05:49:56;;;;;;;8.70;1.25;;;15.70;99.90;;;;;;5014422;28;20174;-57
2022/07/26 05:52:23;;;;;;;5.30;1.42;;;15.80;99.90;;;;;;5014335;28;20178;-57
2022/07/26 05:54:49;;;;;;;8.55;1.50;;;15.80;99.90;;;;;;5014058;28;20233;-57
2022/07/26 05:57:14;;;;;;;6.82;1.65;;;15.80;99.90;;;;;;5014361;28;20640;-57
2022/07/26 05:59:40;;;;;;;4.45;1.08;;;15.80;99.90;;;;;;5014384;28;20225;-57
2022/07/26 06:02:07;;;;;;;10.75;1.33;;;15.90;99.90;;;;;;5014248;28;20629;-56
2022/07/26 06:04:33;;;;;;;4.50;1.60;;;15.90;99.90;;;;;;5013983;28;20179;-57
2022/07/26 06:06:59;;;;;;;8.57;1.67;;;15.90;99.90;;;;;;5013879;28;20167;-57
2022/07/26 06:09:25;;;;;;;9.65;1.55;;;15.90;99.90;;;;;;5013953;28;20250;-65
2022/07/26 06:11:52;;;;;;;5.78;1.45;;;16.00;99.90;;;;;;5014146;28;20174;-66
2022/07/26 06:14:18;;;;;;;2.88;1.02;;;16.00;99.90;;;;;;5013875;28;20218;-65
2022/07/26 06:16:46;;;;;;;3.80;1.13;;;16.10;99.90;;;;;;5013886;28;20220;-65
2022/07/26 06:19:12;;;;;;;4.45;1.35;;;16.10;99.90;;;;;;5013625;28;20223;-64
2022/07/26 06:21:38;;;;;;;8.00;1.10;;;16.00;99.90;;;;;;5013449;28;20217;-65
2022/07/26 06:24:04;;;;;;;6.22;1.00;;;16.00;99.90;;;;;;4999331;28;20215;-65
2022/07/26 06:26:30;;;;;;;10.35;1.52;;;16.00;99.90;;;;;;5013621;28;20170;-65
2022/07/26 06:28:56;;;;;;;8.95;1.13;;;16.10;99.90;;;;;;5013741;28;20175;-67
2022/07/26 06:31:22;;;;;;;6.80;1.35;;;16.20;99.90;;;;;;5013490;28;20179;-63
2022/07/26 06:33:47;;;;;;;6.43;1.27;;;16.50;99.90;;;;;;5013319;28;20699;-61
2022/07/26 06:36:13;;;;;;;3.92;1.02;;;16.50;99.90;;;;;;5013363;28;20171;-61
2022/07/26 06:38:39;;;;;;;5.63;1.20;;;16.50;99.90;;;;;;5013395;28;20646;-63
2022/07/26 06:41:05;;;;;;;12.85;1.40;;;16.60;99.90;;;;;;5013520;28;20642;-61
2022/07/26 06:43:31;;;;;;;6.57;1.40;;;16.60;99.90;;;;;;5013340;28;20241;-63
2022/07/26 06:45:57;;;;;;;5.05;1.20;;;16.60;99.90;;;;;;5013356;28;20197;-63
2022/07/26 06:48:23;;;;;;;5.20;1.05;;;16.60;99.90;;;;;;5013205;28;20166;-62
2022/07/26 06:50:49;;;;;;;8.48;1.17;;;16.70;99.90;;;;;;5008372;28;20186;-62
2022/07/26 06:53:14;;;;;;;3.80;1.17;;;16.70;99.90;;;;;;5012682;28;20182;-63
2022/07/26 06:55:41;;;;;;;4.72;1.17;;;16.60;99.90;;;;;;5012647;28;20177;-71
2022/07/26 06:58:06;;;;;;;6.85;1.00;;;16.60;99.90;;;;;;5012837;28;20261;-72
2022/07/26 07:00:32;;;;;;;5.13;1.25;;;16.60;99.90;;;;;;5012461;28;20720;-70
2022/07/26 07:02:58;;;;;;;8.30;1.45;;;16.60;99.90;;;;;;5012844;28;20612;-71
2022/07/26 07:05:24;;;;;;;4.38;1.00;;;16.70;99.90;;;;;;5012936;28;20178;-71
2022/07/26 07:07:50;;;;;;;4.78;0.88;;;16.80;99.90;;;;;;5012505;28;20637;-71
2022/07/26 07:10:16;;;;;;;3.13;1.00;;;16.90;99.90;;;;;;5012568;28;20178;-73
2022/07/26 07:12:43;;;;;;;7.63;1.50;;;17.00;99.90;;;;;;5012552;28;20560;-71
2022/07/26 07:15:10;;;;;;;4.63;0.90;;;17.00;99.90;;;;;;5012581;28;20225;-73
2022/07/26 07:17:36;;;;;;;10.52;1.20;;;17.00;99.90;;;;;;5011739;28;20216;-72
2022/07/26 07:20:04;;;;;;;4.50;0.80;;;17.10;99.90;;;;;;5012133;28;20175;-71
2022/07/26 07:22:31;;;;;;;4.10;0.90;;;17.20;99.90;;;;;;5012555;28;20175;-70
2022/07/26 07:24:56;;;;;;;4.40;1.25;;;17.30;99.90;;;;;;5012493;28;20167;-71
2022/07/26 07:27:23;;;;;;;6.72;1.00;;;17.50;99.90;;;;;;5011383;28;20186;-71
2022/07/26 07:29:48;;;;;;;6.85;1.40;;;17.70;99.90;;;;;;5012171;28;20525;-71
2022/07/26 07:32:15;;;;;;;6.15;1.10;;;17.50;99.90;;;;;;5012425;28;20183;-70
2022/07/26 07:34:41;;;;;;;7.05;1.17;;;17.60;99.90;;;;;;4994686;28;20216;-65
2022/07/26 07:37:07;;;;;;;5.82;1.02;;;17.50;99.90;;;;;;5012288;28;20163;-66
2022/07/26 07:39:33;;;;;;;4.13;0.75;;;17.50;99.90;;;;;;5012304;28;20482;-66
2022/07/26 07:41:59;;;;;;;5.60;1.13;;;17.60;99.90;;;;;;5012214;28;20166;-66
2022/07/26 07:44:24;;;;;;;3.75;0.98;;;17.50;99.90;;;;;;5016467;28;20186;-66
2022/07/26 07:46:50;;;;;;;11.18;1.15;;;17.50;99.90;;;;;;5011619;28;20175;-67
2022/07/26 07:49:16;;;;;;;3.55;0.95;;;17.30;99.90;;;;;;5011885;28;20625;-67
2022/07/26 07:51:42;;;;;;;6.07;1.25;;;17.60;99.90;;;;;;5010393;28;20637;-67
2022/07/26 07:54:08;;;;;;;3.67;0.90;;;17.70;99.90;;;;;;4993466;28;20697;-68
2022/07/26 07:56:34;;;;;;;7.32;1.25;;;17.70;99.90;;;;;;4995351;28;20174;-70
2022/07/26 07:59:00;;;;;;;7.63;1.20;;;17.20;99.90;;;;;;5011589;28;20205;-69
2022/07/26 08:01:26;;;;;;;3.70;0.88;;;17.80;99.90;;;;;;5011164;28;20182;-69
2022/07/26 08:03:51;;;;;;;6.78;1.50;;;17.90;99.90;;;;;;5011799;28;20170;-70
2022/07/26 08:06:17;;;;;;;4.38;1.20;;;18.10;99.90;;;;;;5011647;28;20179;-68
2022/07/26 08:08:43;;;;;;;6.93;1.10;;;18.20;99.90;;;;;;5011715;28;20193;-66
2022/07/26 08:11:09;;;;;;;4.47;1.05;;;18.20;99.90;;;;;;5011704;28;20202;-66
2022/07/26 08:13:35;;;;;;;3.28;1.10;;;18.20;99.90;;;;;;5011651;28;20633;-67
2022/07/26 08:16:01;;;;;;;2.05;0.80;;;18.50;99.90;;;;;;5011229;28;20258;-60
2022/07/26 08:18:27;;;;;;;6.00;1.20;;;18.50;99.90;;;;;;5011198;28;20306;-59
2022/07/26 08:20:53;;;;;;;3.20;0.85;;;18.50;99.90;;;;;;5010617;28;20178;-73
2022/07/26 08:23:19;;;;;;;7.20;1.10;;;18.70;99.90;;;;;;5011296;28;20183;-74
2022/07/26 08:25:46;;;;;;;9.93;1.10;;;18.40;99.90;;;;;;5010694;28;20214;-72
2022/07/26 08:28:11;;;;;;;7.93;1.33;;;18.40;99.90;;;;;;5006225;28;20215;-72
2022/07/26 08:30:37;;;;;;;6.65;1.10;;;18.40;99.90;;;;;;5011583;28;20175;-73
2022/07/26 08:33:03;;;;;;;5.95;1.25;;;18.50;99.90;;;;;;5010408;28;20180;-72
2022/07/26 08:35:29;;;;;;;5.63;1.35;;;18.70;99.90;;;;;;5010631;28;20648;-74
2022/07/26 08:37:56;;;;;;;7.88;0.95;;;18.70;99.90;;;;;;5010992;28;20171;-73
2022/07/26 08:40:22;;;;;;;3.05;0.90;;;18.70;99.90;;;;;;5013480;28;21679;-73
2022/07/26 08:42:57;;;;;;;4.85;0.95;;;18.30;99.90;;;;;;5011344;28;20220;-74
2022/07/26 08:45:29;;;;;;;3.20;0.80;;;18.60;99.90;;;;;;4993533;28;20173;-72
2022/07/26 08:47:55;;;;;;;9.45;1.20;;;18.70;99.90;;;;;;5015703;28;20232;-73
2022/07/26 08:50:22;;;;;;;5.40;1.08;;;19.00;99.90;;;;;;5017733;28;20174;-73
2022/07/26 08:52:48;;;;;;;9.52;1.45;;;19.10;99.90;;;;;;5017050;28;20169;-73
2022/07/26 08:55:19;;;;;;;9.57;1.15;;;19.30;99.90;;;;;;5012537;28;20664;-74
2022/07/26 08:57:45;;;;;;;4.32;1.00;;;19.50;99.90;;;;;;5010774;28;20170;-74
2022/07/26 09:00:29;;;;;;;4.03;1.10;;;19.80;99.90;;;;;;5011095;28;20648;-72
2022/07/26 09:02:59;;;;;;;6.65;1.30;;;19.70;99.90;;;;;;5011193;28;20200;-72
2022/07/26 09:05:31;;;;;;;5.15;1.20;;;19.30;99.90;;;;;;5011000;28;20174;-72
2022/07/26 09:07:57;;;;;;;3.58;1.10;;;19.30;99.90;;;;;;5010624;28;20193;-72
2022/07/26 09:10:23;;;;;;;6.45;1.35;;;18.60;99.90;;;;;;5011056;28;20178;-73
2022/07/26 09:12:56;;;;;;;6.07;1.90;;;18.80;99.90;;;;;;5011378;28;20175;-73
2022/07/26 09:15:25;;;;;;;7.18;1.08;;;18.60;99.90;;;;;;5009910;28;20640;-73
2022/07/26 09:17:54;;;;;;;7.47;1.45;;;18.30;99.90;;;;;;4993189;28;20182;-73
2022/07/26 09:20:23;;;;;;;4.82;1.00;;;18.40;99.90;;;;;;4999597;28;20179;-72
2022/07/26 09:23:07;;;;;;;6.35;1.35;;;18.50;99.90;;;;;;4993565;28;20278;-72
2022/07/26 09:25:38;;;;;;;7.07;1.17;;;18.40;99.90;;;;;;5010417;28;20186;-72
2022/07/26 09:28:25;;;;;;;3.42;1.00;;;18.60;99.90;;;;;;5008972;28;20178;-71
2022/07/26 09:30:52;;;;;;;5.57;1.05;;;18.80;99.90;;;;;;5010247;28;20306;-72
2022/07/26 09:33:18;;;;;;;5.75;0.90;;;18.90;99.90;;;;;;5010410;28;20638;-72
2022/07/26 09:36:03;;;;;;;5.45;1.25;;;19.00;99.90;;;;;;5010562;28;20201;-70
2022/07/26 09:38:42;;;;;;;6.10;1.00;;;19.00;99.90;;;;;;5010693;28;20656;-62
2022/07/26 09:41:27;;;;;;;4.07;1.00;;;19.30;99.90;;;;;;5009929;28;20189;-61
2022/07/26 09:43:54;;;;;;;8.05;1.35;;;19.70;99.90;;;;;;5010235;28;20182;-70
2022/07/26 09:46:22;;;;;;;6.22;1.23;;;20.10;99.90;;;;;;5010603;28;20270;-74
2022/07/26 09:48:48;;;;;;;3.15;0.90;;;20.60;99.90;;;;;;5010532;28;20817;-73
2022/07/26 09:51:14;;;;;;;7.38;1.20;;;20.90;99.90;;;;;;5010423;28;20241;-69
2022/07/26 09:53:43;;;;;;;7.95;1.27;;;20.70;99.90;;;;;;5010260;28;20832;-66
2022/07/26 09:56:10;;;;;;;4.97;0.93;;;21.20;99.90;;;;;;5010643;28;20250;-67
2022/07/26 09:58:37;;;;;;;5.13;1.08;;;21.20;99.90;;;;;;5012638;28;20257;-66
2022/07/26 10:01:04;;;;;;;4.10;1.10;;;21.30;99.90;;;;;;5014242;28;20178;-65
2022/07/26 10:03:31;;;;;;;4.43;1.08;;;21.50;99.90;;;;;;5013191;28;20304;-64
2022/07/26 10:05:58;;;;;;;7.13;0.90;;;21.10;99.90;;;;;;5013889;28;20170;-65
2022/07/26 10:08:24;;;;;;;7.13;1.27;;;20.90;99.90;;;;;;5013733;28;20213;-61
2022/07/26 10:10:59;;;;;;;5.63;1.10;;;20.50;99.90;;;;;;5013320;28;20629;-71
2022/07/26 10:13:26;;;;;;;5.07;0.90;;;20.30;99.90;;;;;;5013128;28;20213;-72
2022/07/26 10:15:53;;;;;;;3.17;1.10;;;20.10;99.90;;;;;;5014121;28;20256;-72
2022/07/26 10:18:37;;;;;;;4.95;1.05;;;19.60;99.90;;;;;;5014783;28;20240;-73
2022/07/26 10:21:14;;;;;;;5.25;1.08;;;20.20;99.90;;;;;;4999351;28;20185;-74
2022/07/26 10:23:43;;;;;;;9.60;0.98;;;20.60;99.90;;;;;;5013489;28;20696;-72
2022/07/26 10:26:28;;;;;;;4.10;0.95;;;21.30;99.90;;;;;;5013533;28;20183;-73
2022/07/26 10:28:55;;;;;;;3.30;0.95;;;21.70;99.90;;;;;;5013557;28;20175;-71
2022/07/26 10:31:28;;;;;;;6.45;1.00;;;21.70;99.90;;;;;;5013198;28;20183;-73
2022/07/26 10:33:55;;;;;;;4.45;1.17;;;21.50;99.90;;;;;;5012724;28;20210;-71
2022/07/26 10:36:24;;;;;;;4.13;1.13;;;21.40;99.90;;;;;;5013279;28;20175;-72
2022/07/26 10:38:59;;;;;;;7.80;1.20;;;21.70;99.90;;;;;;5013349;28;20206;-73
2022/07/26 10:41:35;;;;;;;4.18;1.00;;;22.50;99.90;;;;;;5013230;28;20260;-73
2022/07/26 10:44:20;;;;;;;3.38;1.05;;;22.60;99.90;;;;;;5013386;28;20205;-73
2022/07/26 10:47:14;;;;;;;2.30;0.85;;;21.80;99.90;;;;;;5013551;28;20182;-72
2022/07/26 10:49:52;;;;;;;4.85;1.13;;;22.00;99.90;;;;;;5005618;28;20186;-73
2022/07/26 10:52:20;;;;;;;8.27;1.35;;;22.00;99.90;;;;;;5012891;28;20540;-73
2022/07/26 10:54:58;;;;;;;8.30;1.40;;;22.30;99.90;;;;;;5012922;28;20218;-74
2022/07/26 10:57:36;;;;;;;3.85;1.05;;;22.00;99.90;;;;;;5012935;28;20171;-72
2022/07/26 11:00:11;;;;;;;4.55;0.85;;;22.00;99.90;;;;;;5012962;28;20213;-73
2022/07/26 11:02:37;;;;;;;6.68;1.40;;;22.60;99.90;;;;;;5012856;28;20273;-73
2022/07/26 11:05:12;;;;;;;6.32;1.17;;;23.20;99.90;;;;;;5012308;28;20684;-73
2022/07/26 11:07:51;;;;;;;2.92;0.80;;;24.20;99.90;;;;;;5012183;28;20186;-73
2022/07/26 11:10:40;;;;;;;2.90;1.02;;;24.70;99.90;;;;;;5004355;28;20273;-73
2022/07/26 11:13:10;;;;;;;5.28;1.30;;;24.80;99.90;;;;;;5012159;28;20189;-73
2022/07/26 11:15:41;;;;;;;5.97;1.17;;;24.70;99.90;;;;;;5012692;28;20205;-74
2022/07/26 11:18:26;;;;;;;5.80;1.13;;;25.50;99.90;;;;;;5012486;28;20221;-74
2022/07/26 11:20:55;;;;;;;7.32;1.45;;;25.80;99.90;;;;;;5012809;28;20202;-74
2022/07/26 11:23:33;;;;;;;4.72;1.10;;;27.10;99.90;;;;;;5011927;28;20175;-74
2022/07/26 11:26:05;;;;;;;6.22;0.90;;;28.00;99.90;;;;;;5010774;28;20206;-74
2022/07/26 11:28:52;;;;;;;3.55;0.80;;;27.90;99.90;;;;;;5012671;28;20204;-74
2022/07/26 11:31:20;;;;;;;2.95;0.80;;;27.00;99.90;;;;;;5012167;28;20170;-74
2022/07/26 11:33:49;;;;;;;4.30;1.02;;;25.10;99.90;;;;;;5012245;28;20213;-74
2022/07/26 11:36:30;;;;;;;6.50;1.17;;;23.90;99.90;;;;;;5011208;28;20266;-73
2022/07/26 11:38:56;;;;;;;3.60;0.95;;;23.30;99.90;;;;;;5012390;28;20664;-74
2022/07/26 11:41:28;;;;;;;4.95;1.23;;;23.00;99.90;;;;;;5011940;28;20178;-74
2022/07/26 11:43:55;;;;;;;3.38;0.80;;;22.90;99.90;;;;;;5012159;28;20202;-74
2022/07/26 11:46:23;;;;;;;5.68;1.08;;;22.70;99.90;;;;;;5012108;28;20197;-74
2022/07/26 11:48:52;;;;;;;4.13;0.93;;;22.40;99.90;;;;;;5011993;28;20178;-74
2022/07/26 11:51:22;;;;;;;4.82;1.00;;;22.20;99.90;;;;;;5011411;28;20178;-74
2022/07/26 11:53:50;;;;;;;4.53;1.00;;;21.80;99.90;;;;;;5011947;28;20245;-74
2022/07/26 11:56:21;;;;;;;6.13;1.40;;;21.40;99.90;;;;;;5011554;28;20202;-74
2022/07/26 11:58:49;;;;;;;3.70;1.00;;;21.70;99.90;;;;;;5011609;28;20269;-73
2022/07/26 12:01:17;;;;;;;3.85;0.77;;;21.80;99.90;;;;;;5011542;28;20178;-73
2022/07/26 12:03:50;;;;;;;5.03;1.15;;;22.20;99.90;;;;;;5011805;28;20175;-74
2022/07/26 12:06:18;;;;;;;3.97;1.08;;;22.70;99.90;;;;;;5011846;28;20182;-74
2022/07/26 12:08:51;;;;;;;6.05;0.77;;;22.70;99.90;;;;;;5011752;28;20210;-73
2022/07/26 12:11:18;;;;;;;5.25;1.00;;;22.50;99.90;;;;;;5011873;28;20648;-73
2022/07/26 12:13:58;;;;;;;4.78;1.20;;;22.70;99.90;;;;;;5011365;28;20199;-74
2022/07/26 12:16:38;;;;;;;6.65;1.30;;;22.50;99.90;;;;;;5011893;28;20183;-73
2022/07/26 12:19:06;;;;;;;2.38;0.80;;;22.90;99.90;;;;;;5011418;28;20226;-73
2022/07/26 12:21:39;;;;;;;3.80;0.80;;;23.30;99.90;;;;;;5010486;28;20188;-73
2022/07/26 12:24:06;;;;;;;1.30;0.70;;;23.40;99.90;;;;;;5011616;28;20178;-73
2022/07/26 12:26:32;;;;;;;2.67;0.70;;;23.60;99.90;;;;;;5011543;28;20538;-72
2022/07/26 12:29:23;;;;;;;2.22;0.73;;;23.60;99.90;;;;;;5011171;28;20178;-73
2022/07/26 12:31:46;;;;;;;3.05;0.82;;;23.70;99.90;;;;;;5010708;28;20170;-73
2022/07/26 12:34:18;;;;;;;2.45;0.80;;;24.20;99.90;;;;;;5010862;28;20202;-73
2022/07/26 12:36:44;;;;;;;5.25;1.50;;;24.60;99.90;;;;;;5001756;28;20179;-73
2022/07/26 12:39:20;;;;;;;2.35;0.73;;;25.40;99.90;;;;;;5007079;28;20178;-73
2022/07/26 12:41:49;;;;;;;3.58;1.10;;;26.00;99.90;;;;;;5011166;28;20178;-69
2022/07/26 12:44:15;;;;;;;2.40;1.10;;;25.90;99.90;;;;;;5010093;28;20206;-74
2022/07/26 12:46:45;;;;;;;5.32;1.00;;;25.40;99.90;;;;;;5010769;28;20174;-73
2022/07/26 12:49:11;;;;;;;4.88;1.10;;;25.10;99.90;;;;;;5011244;28;20174;-73
2022/07/26 12:51:37;;;;;;;5.18;0.90;;;24.20;99.90;;;;;;5010441;28;20178;-73